Belk, Alabama
Current Conditions -  °F | °C
As of 5:58 AM on Thursday 18 Dec 2014 (Local Time) from KCBM Reporting Station
Overcast Overcast  
Wind Chill: 41°   Ceiling: 7500
Heat Index: 41°   Visibility: 10mi
Dew Point: 35°   Wind: 2mph
Humidity: 79%   Direction: 60°ENE
Pressure: 30.23"   Gusts: NA
Location:  33.65°N, 87.93°W
Report Text: KCBM 181158Z AUTO 06002KT 10SM OVC075 05/02 A3023 RMK AO2 SLP241 T00480015 10049 20029 57006 $
Loading
Personal Weather Stations






























Interactive Weather Map New forecast layout! Learn more

10-Day Weather Forecast

Advertisements
Track Severe Weather on mobile